sensor_id;sensor_type;location;lat;lon;timestamp;pressure;altitude;pressure_sealevel;temperature;humidity
38612;BME280;24368;52.156;20.788;2022-08-18T00:05:00;100132.74;;;21.81;98.45
38612;BME280;24368;52.156;20.788;2022-08-18T00:10:03;100133.34;;;21.72;98.85
38612;BME280;24368;52.156;20.788;2022-08-18T00:15:05;100148.60;;;21.65;99.29
38612;BME280;24368;52.156;20.788;2022-08-18T00:20:09;100156.21;;;21.52;99.57
38612;BME280;24368;52.156;20.788;2022-08-18T00:25:12;100163.67;;;21.52;99.66
38612;BME280;24368;52.156;20.788;2022-08-18T00:30:16;100177.16;;;21.41;99.80
38612;BME280;24368;52.156;20.788;2022-08-18T00:35:20;100185.25;;;21.15;100.00
38612;BME280;24368;52.156;20.788;2022-08-18T00:40:24;100188.46;;;21.01;100.00
38612;BME280;24368;52.156;20.788;2022-08-18T00:45:30;100192.23;;;21.03;100.00
38612;BME280;24368;52.156;20.788;2022-08-18T00:50:41;100196.09;;;21.02;100.00
38612;BME280;24368;52.156;20.788;2022-08-18T00:55:45;100199.42;;;21.00;100.00
38612;BME280;24368;52.156;20.788;2022-08-18T01:00:49;100202.71;;;20.85;100.00
38612;BME280;24368;52.156;20.788;2022-08-18T01:06:35;100208.79;;;20.74;100.00
38612;BME280;24368;52.156;20.788;2022-08-18T01:11:16;100215.30;;;20.64;100.00
38612;BME280;24368;52.156;20.788;2022-08-18T01:16:18;100226.59;;;20.55;100.00
38612;BME280;24368;52.156;20.788;2022-08-18T01:21:40;100223.19;;;20.60;100.00
38612;BME280;24368;52.156;20.788;2022-08-18T01:26:53;100221.13;;;20.63;100.00
38612;BME280;24368;52.156;20.788;2022-08-18T01:31:55;100226.30;;;20.60;100.00
38612;BME280;24368;52.156;20.788;2022-08-18T01:36:56;100226.63;;;20.60;100.00
38612;BME280;24368;52.156;20.788;2022-08-18T01:41:58;100234.80;;;20.52;100.00
38612;BME280;24368;52.156;20.788;2022-08-18T01:47:04;100242.65;;;20.46;100.00
38612;BME280;24368;52.156;20.788;2022-08-18T01:52:06;100243.73;;;20.34;100.00
38612;BME280;24368;52.156;20.788;2022-08-18T01:57:09;100242.71;;;20.34;100.00
38612;BME280;24368;52.156;20.788;2022-08-18T02:02:15;100234.60;;;20.41;100.00
38612;BME280;24368;52.156;20.788;2022-08-18T02:07:19;100231.69;;;20.39;100.00
38612;BME280;24368;52.156;20.788;2022-08-18T02:12:20;100232.95;;;20.33;100.00
38612;BME280;24368;52.156;20.788;2022-08-18T02:17:22;100246.20;;;20.17;100.00
38612;BME280;24368;52.156;20.788;2022-08-18T02:22:24;100237.95;;;20.07;100.00
38612;BME280;24368;52.156;20.788;2022-08-18T02:27:26;100231.02;;;20.07;100.00
38612;BME280;24368;52.156;20.788;2022-08-18T02:32:28;100228.57;;;20.08;100.00
38612;BME280;24368;52.156;20.788;2022-08-18T02:37:30;100229.42;;;20.14;100.00
38612;BME280;24368;52.156;20.788;2022-08-18T02:42:31;100229.14;;;20.22;100.00
38612;BME280;24368;52.156;20.788;2022-08-18T02:47:33;100226.16;;;20.25;100.00
38612;BME280;24368;52.156;20.788;2022-08-18T02:52:35;100225.02;;;20.26;100.00
38612;BME280;24368;52.156;20.788;2022-08-18T02:57:44;100231.55;;;20.27;100.00
38612;BME280;24368;52.156;20.788;2022-08-18T03:02:48;100230.70;;;20.25;100.00
38612;BME280;24368;52.156;20.788;2022-08-18T03:07:51;100230.65;;;20.24;100.00
38612;BME280;24368;52.156;20.788;2022-08-18T03:12:54;100228.06;;;20.19;100.00
38612;BME280;24368;52.156;20.788;2022-08-18T03:17:55;100226.09;;;20.14;100.00
38612;BME280;24368;52.156;20.788;2022-08-18T03:22:58;100231.30;;;20.13;100.00
38612;BME280;24368;52.156;20.788;2022-08-18T03:28:03;100237.52;;;20.11;100.00
38612;BME280;24368;52.156;20.788;2022-08-18T03:33:05;100240.44;;;20.15;100.00
38612;BME280;24368;52.156;20.788;2022-08-18T03:38:07;100241.80;;;20.22;100.00
38612;BME280;24368;52.156;20.788;2022-08-18T03:43:08;100243.71;;;20.24;100.00
38612;BME280;24368;52.156;20.788;2022-08-18T03:48:10;100241.96;;;20.25;100.00
38612;BME280;24368;52.156;20.788;2022-08-18T03:53:12;100238.79;;;20.25;100.00
38612;BME280;24368;52.156;20.788;2022-08-18T03:58:14;100242.23;;;20.22;100.00
38612;BME280;24368;52.156;20.788;2022-08-18T04:03:16;100243.92;;;20.23;100.00
38612;BME280;24368;52.156;20.788;2022-08-18T04:08:17;100238.29;;;20.25;100.00
38612;BME280;24368;52.156;20.788;2022-08-18T04:13:19;100241.27;;;20.29;100.00
38612;BME280;24368;52.156;20.788;2022-08-18T04:18:21;100249.77;;;20.28;100.00
38612;BME280;24368;52.156;20.788;2022-08-18T04:23:28;100254.88;;;20.21;100.00
38612;BME280;24368;52.156;20.788;2022-08-18T04:28:31;100252.52;;;20.27;100.00
38612;BME280;24368;52.156;20.788;2022-08-18T04:33:33;100253.07;;;20.30;100.00
38612;BME280;24368;52.156;20.788;2022-08-18T04:38:34;100265.11;;;20.33;100.00
38612;BME280;24368;52.156;20.788;2022-08-18T04:43:36;100260.83;;;20.35;100.00
38612;BME280;24368;52.156;20.788;2022-08-18T04:48:38;100258.94;;;20.35;100.00
38612;BME280;24368;52.156;20.788;2022-08-18T04:53:41;100260.98;;;20.37;100.00
38612;BME280;24368;52.156;20.788;2022-08-18T04:58:47;100259.23;;;20.45;100.00
38612;BME280;24368;52.156;20.788;2022-08-18T05:03:53;100260.69;;;20.57;100.00
38612;BME280;24368;52.156;20.788;2022-08-18T05:08:56;100269.52;;;20.67;100.00
38612;BME280;24368;52.156;20.788;2022-08-18T05:13:59;100269.54;;;20.69;100.00
38612;BME280;24368;52.156;20.788;2022-08-18T05:19:07;100272.30;;;20.70;100.00
38612;BME280;24368;52.156;20.788;2022-08-18T05:24:10;100271.75;;;20.75;100.00
38612;BME280;24368;52.156;20.788;2022-08-18T05:29:11;100275.15;;;20.82;100.00
38612;BME280;24368;52.156;20.788;2022-08-18T05:34:13;100276.34;;;20.90;100.00
38612;BME280;24368;52.156;20.788;2022-08-18T05:44:50;100278.35;;;21.11;100.00
38612;BME280;24368;52.156;20.788;2022-08-18T05:49:53;100274.99;;;21.17;100.00
38612;BME280;24368;52.156;20.788;2022-08-18T05:54:59;100267.48;;;21.31;100.00
38612;BME280;24368;52.156;20.788;2022-08-18T06:00:20;100264.23;;;21.36;100.00
38612;BME280;24368;52.156;20.788;2022-08-18T06:05:26;100260.20;;;21.41;100.00
38612;BME280;24368;52.156;20.788;2022-08-18T06:10:28;100270.63;;;21.47;100.00
38612;BME280;24368;52.156;20.788;2022-08-18T06:26:07;100273.44;;;21.83;99.99
38612;BME280;24368;52.156;20.788;2022-08-18T06:31:19;100269.06;;;21.92;99.92
38612;BME280;24368;52.156;20.788;2022-08-18T06:41:38;100276.79;;;21.96;100.00
38612;BME280;24368;52.156;20.788;2022-08-18T06:46:57;100275.98;;;22.06;99.78
38612;BME280;24368;52.156;20.788;2022-08-18T07:18:13;100295.60;;;22.58;91.55
38612;BME280;24368;52.156;20.788;2022-08-18T07:23:20;100298.48;;;22.78;90.85
38612;BME280;24368;52.156;20.788;2022-08-18T07:28:29;100290.37;;;22.89;87.88
38612;BME280;24368;52.156;20.788;2022-08-18T07:33:31;100289.80;;;22.98;86.79
38612;BME280;24368;52.156;20.788;2022-08-18T07:38:37;100282.27;;;23.05;87.82
38612;BME280;24368;52.156;20.788;2022-08-18T07:48:55;100284.39;;;23.38;84.46
38612;BME280;24368;52.156;20.788;2022-08-18T07:54:00;100296.71;;;23.39;84.57
38612;BME280;24368;52.156;20.788;2022-08-18T08:04:13;100296.00;;;23.55;81.82
38612;BME280;24368;52.156;20.788;2022-08-18T08:09:51;100301.66;;;23.66;80.80
38612;BME280;24368;52.156;20.788;2022-08-18T08:14:45;100304.64;;;23.55;81.90
38612;BME280;24368;52.156;20.788;2022-08-18T08:25:11;100305.19;;;23.71;80.57
38612;BME280;24368;52.156;20.788;2022-08-18T08:30:20;100311.09;;;23.75;79.75
38612;BME280;24368;52.156;20.788;2022-08-18T08:35:34;100311.02;;;23.90;80.58
38612;BME280;24368;52.156;20.788;2022-08-18T08:40:53;100311.05;;;24.12;78.45
38612;BME280;24368;52.156;20.788;2022-08-18T08:51:19;100313.16;;;24.24;75.21
38612;BME280;24368;52.156;20.788;2022-08-18T08:56:26;100303.86;;;24.35;75.86
38612;BME280;24368;52.156;20.788;2022-08-18T09:07:03;100291.99;;;24.40;75.69
38612;BME280;24368;52.156;20.788;2022-08-18T09:12:01;100288.75;;;24.46;75.31
38612;BME280;24368;52.156;20.788;2022-08-18T09:22:47;100277.30;;;24.57;75.29
38612;BME280;24368;52.156;20.788;2022-08-18T09:27:54;100273.23;;;24.71;75.44
38612;BME280;24368;52.156;20.788;2022-08-18T09:33:17;100273.32;;;24.90;73.20
38612;BME280;24368;52.156;20.788;2022-08-18T09:38:21;100274.52;;;24.99;71.15
38612;BME280;24368;52.156;20.788;2022-08-18T09:44:03;100274.90;;;25.14;70.15
38612;BME280;24368;52.156;20.788;2022-08-18T09:54:29;100267.89;;;25.40;69.22
38612;BME280;24368;52.156;20.788;2022-08-18T10:04:34;100267.16;;;25.69;68.88
38612;BME280;24368;52.156;20.788;2022-08-18T10:19:55;100272.67;;;26.06;68.35
38612;BME280;24368;52.156;20.788;2022-08-18T10:25:02;100272.13;;;26.01;67.82
38612;BME280;24368;52.156;20.788;2022-08-18T10:30:04;100269.28;;;25.91;68.34
38612;BME280;24368;52.156;20.788;2022-08-18T10:40:27;100269.77;;;26.45;65.60
38612;BME280;24368;52.156;20.788;2022-08-18T10:45:31;100276.65;;;26.61;64.96
38612;BME280;24368;52.156;20.788;2022-08-18T10:50:42;100279.86;;;26.82;65.13
38612;BME280;24368;52.156;20.788;2022-08-18T10:55:49;100287.45;;;27.04;63.55
38612;BME280;24368;52.156;20.788;2022-08-18T11:06:07;100285.46;;;27.15;60.51
38612;BME280;24368;52.156;20.788;2022-08-18T11:11:10;100280.42;;;27.52;58.25
38612;BME280;24368;52.156;20.788;2022-08-18T11:21:36;100266.98;;;27.83;56.20
38612;BME280;24368;52.156;20.788;2022-08-18T11:26:41;100256.99;;;27.99;55.64
38612;BME280;24368;52.156;20.788;2022-08-18T11:31:44;100250.51;;;28.20;56.22
38612;BME280;24368;52.156;20.788;2022-08-18T11:36:56;100238.74;;;28.55;55.07
38612;BME280;24368;52.156;20.788;2022-08-18T11:41:59;100242.98;;;28.57;53.29
38612;BME280;24368;52.156;20.788;2022-08-18T11:47:15;100242.33;;;28.50;54.00
38612;BME280;24368;52.156;20.788;2022-08-18T11:52:27;100234.02;;;28.48;55.53
38612;BME280;24368;52.156;20.788;2022-08-18T12:02:32;100223.21;;;27.89;58.68
38612;BME280;24368;52.156;20.788;2022-08-18T12:07:34;100223.58;;;27.91;58.86
38612;BME280;24368;52.156;20.788;2022-08-18T12:12:42;100215.86;;;28.07;57.23
38612;BME280;24368;52.156;20.788;2022-08-18T12:17:45;100211.30;;;28.94;54.45
38612;BME280;24368;52.156;20.788;2022-08-18T12:22:48;100212.00;;;29.19;51.92
38612;BME280;24368;52.156;20.788;2022-08-18T12:27:50;100215.22;;;28.43;54.30
38612;BME280;24368;52.156;20.788;2022-08-18T12:32:51;100217.09;;;28.21;54.35
38612;BME280;24368;52.156;20.788;2022-08-18T12:37:53;100218.05;;;28.40;53.43
38612;BME280;24368;52.156;20.788;2022-08-18T12:42:57;100208.60;;;28.85;52.36
38612;BME280;24368;52.156;20.788;2022-08-18T12:47:58;100205.15;;;28.27;54.76
38612;BME280;24368;52.156;20.788;2022-08-18T12:53:02;100199.19;;;27.89;56.11
38612;BME280;24368;52.156;20.788;2022-08-18T12:58:04;100195.45;;;28.19;55.78
38612;BME280;24368;52.156;20.788;2022-08-18T13:03:06;100194.08;;;28.03;55.88
38612;BME280;24368;52.156;20.788;2022-08-18T13:08:11;100197.73;;;27.82;55.93
38612;BME280;24368;52.156;20.788;2022-08-18T13:13:15;100194.18;;;27.84;55.98
38612;BME280;24368;52.156;20.788;2022-08-18T13:18:17;100187.29;;;27.80;55.31
38612;BME280;24368;52.156;20.788;2022-08-18T13:23:18;100182.50;;;27.75;55.59
38612;BME280;24368;52.156;20.788;2022-08-18T13:28:20;100176.14;;;28.01;54.80
38612;BME280;24368;52.156;20.788;2022-08-18T13:33:22;100167.72;;;27.99;54.36
38612;BME280;24368;52.156;20.788;2022-08-18T13:38:24;100163.96;;;28.33;54.52
38612;BME280;24368;52.156;20.788;2022-08-18T13:43:29;100161.20;;;28.26;54.86
38612;BME280;24368;52.156;20.788;2022-08-18T13:48:32;100152.20;;;28.40;54.06
38612;BME280;24368;52.156;20.788;2022-08-18T13:53:34;100150.87;;;28.74;53.65
38612;BME280;24368;52.156;20.788;2022-08-18T13:58:37;100148.84;;;28.69;54.48
38612;BME280;24368;52.156;20.788;2022-08-18T14:03:39;100141.65;;;28.57;55.03
38612;BME280;24368;52.156;20.788;2022-08-18T14:08:41;100142.23;;;28.49;55.12
38612;BME280;24368;52.156;20.788;2022-08-18T14:13:44;100143.86;;;28.49;52.61
38612;BME280;24368;52.156;20.788;2022-08-18T14:18:46;100143.27;;;28.49;52.43
38612;BME280;24368;52.156;20.788;2022-08-18T14:24:08;100140.23;;;28.44;53.82
38612;BME280;24368;52.156;20.788;2022-08-18T14:29:28;100140.65;;;28.63;53.79
38612;BME280;24368;52.156;20.788;2022-08-18T14:34:30;100141.45;;;28.56;53.94
38612;BME280;24368;52.156;20.788;2022-08-18T14:39:32;100147.14;;;28.42;54.19
38612;BME280;24368;52.156;20.788;2022-08-18T14:44:34;100151.27;;;28.45;52.95
38612;BME280;24368;52.156;20.788;2022-08-18T14:49:36;100151.33;;;28.73;52.81
38612;BME280;24368;52.156;20.788;2022-08-18T14:54:38;100152.08;;;29.02;51.32
38612;BME280;24368;52.156;20.788;2022-08-18T14:59:40;100158.67;;;29.23;51.29
38612;BME280;24368;52.156;20.788;2022-08-18T15:04:42;100166.43;;;29.13;50.84
38612;BME280;24368;52.156;20.788;2022-08-18T15:09:45;100172.23;;;29.05;51.46
38612;BME280;24368;52.156;20.788;2022-08-18T15:14:47;100178.66;;;28.79;51.69
38612;BME280;24368;52.156;20.788;2022-08-18T15:19:48;100172.70;;;28.60;53.11
38612;BME280;24368;52.156;20.788;2022-08-18T15:24:50;100162.81;;;28.39;53.12
38612;BME280;24368;52.156;20.788;2022-08-18T15:30:12;100157.98;;;28.25;53.74
38612;BME280;24368;52.156;20.788;2022-08-18T15:35:17;100149.75;;;28.21;54.47
38612;BME280;24368;52.156;20.788;2022-08-18T15:40:24;100151.98;;;28.18;53.65
38612;BME280;24368;52.156;20.788;2022-08-18T15:45:28;100142.48;;;28.12;54.62
38612;BME280;24368;52.156;20.788;2022-08-18T15:50:33;100135.10;;;28.08;54.27
38612;BME280;24368;52.156;20.788;2022-08-18T15:55:36;100132.29;;;28.05;54.79
38612;BME280;24368;52.156;20.788;2022-08-18T16:00:45;100124.14;;;28.01;54.77
38612;BME280;24368;52.156;20.788;2022-08-18T16:05:52;100116.21;;;27.96;55.92
38612;BME280;24368;52.156;20.788;2022-08-18T16:10:54;100115.52;;;27.92;55.85
38612;BME280;24368;52.156;20.788;2022-08-18T16:15:56;100116.08;;;27.89;55.98
38612;BME280;24368;52.156;20.788;2022-08-18T16:21:02;100122.16;;;27.84;54.95
38612;BME280;24368;52.156;20.788;2022-08-18T16:26:05;100126.63;;;27.81;55.91
38612;BME280;24368;52.156;20.788;2022-08-18T16:31:08;100130.52;;;27.74;55.69
38612;BME280;24368;52.156;20.788;2022-08-18T16:36:10;100133.56;;;27.72;55.64
38612;BME280;24368;52.156;20.788;2022-08-18T16:41:15;100135.61;;;27.68;56.39
38612;BME280;24368;52.156;20.788;2022-08-18T16:46:18;100129.76;;;27.64;56.91
38612;BME280;24368;52.156;20.788;2022-08-18T16:51:23;100144.48;;;27.57;57.47
38612;BME280;24368;52.156;20.788;2022-08-18T16:56:27;100142.47;;;27.53;57.73
38612;BME280;24368;52.156;20.788;2022-08-18T17:01:29;100139.37;;;27.46;58.27
38612;BME280;24368;52.156;20.788;2022-08-18T17:06:49;100128.99;;;27.36;58.49
38612;BME280;24368;52.156;20.788;2022-08-18T17:11:51;100127.69;;;27.30;59.29
38612;BME280;24368;52.156;20.788;2022-08-18T17:16:53;100132.41;;;27.25;60.09
38612;BME280;24368;52.156;20.788;2022-08-18T17:21:55;100127.72;;;27.15;60.74
38612;BME280;24368;52.156;20.788;2022-08-18T17:32:04;100129.41;;;27.01;61.53
38612;BME280;24368;52.156;20.788;2022-08-18T17:37:09;100129.88;;;26.91;62.20
38612;BME280;24368;52.156;20.788;2022-08-18T17:42:11;100132.79;;;26.81;62.88
38612;BME280;24368;52.156;20.788;2022-08-18T17:47:53;100142.41;;;26.71;63.41
38612;BME280;24368;52.156;20.788;2022-08-18T17:52:58;100147.29;;;26.58;63.90
38612;BME280;24368;52.156;20.788;2022-08-18T17:58:09;100145.31;;;26.51;64.84
38612;BME280;24368;52.156;20.788;2022-08-18T18:03:14;100140.80;;;26.35;65.62
38612;BME280;24368;52.156;20.788;2022-08-18T18:08:16;100127.90;;;26.22;66.23
38612;BME280;24368;52.156;20.788;2022-08-18T18:13:23;100123.43;;;26.18;66.82
38612;BME280;24368;52.156;20.788;2022-08-18T18:18:36;100125.85;;;26.12;67.06
38612;BME280;24368;52.156;20.788;2022-08-18T18:23:43;100125.85;;;25.95;67.66
38612;BME280;24368;52.156;20.788;2022-08-18T18:28:46;100125.66;;;25.91;68.69
38612;BME280;24368;52.156;20.788;2022-08-18T18:33:53;100118.08;;;25.77;69.43
38612;BME280;24368;52.156;20.788;2022-08-18T18:39:03;100113.25;;;25.70;70.03
38612;BME280;24368;52.156;20.788;2022-08-18T18:44:10;100111.61;;;25.68;69.32
38612;BME280;24368;52.156;20.788;2022-08-18T18:49:22;100116.79;;;25.59;69.92
38612;BME280;24368;52.156;20.788;2022-08-18T18:54:49;100112.58;;;25.54;70.33
38612;BME280;24368;52.156;20.788;2022-08-18T19:00:08;100118.16;;;25.48;71.18
38612;BME280;24368;52.156;20.788;2022-08-18T19:10:21;100158.65;;;25.37;71.99
38612;BME280;24368;52.156;20.788;2022-08-18T19:15:26;100160.50;;;25.32;73.24
38612;BME280;24368;52.156;20.788;2022-08-18T19:20:31;100170.45;;;25.15;74.47
38612;BME280;24368;52.156;20.788;2022-08-18T19:25:41;100185.61;;;24.94;76.05
38612;BME280;24368;52.156;20.788;2022-08-18T19:30:48;100197.82;;;24.76;76.92
38612;BME280;24368;52.156;20.788;2022-08-18T19:41:21;100201.55;;;24.50;78.70
38612;BME280;24368;52.156;20.788;2022-08-18T19:47:09;100195.23;;;24.55;79.19
38612;BME280;24368;52.156;20.788;2022-08-18T19:52:21;100188.11;;;24.64;79.08
38612;BME280;24368;52.156;20.788;2022-08-18T19:57:47;100185.74;;;24.65;78.69
38612;BME280;24368;52.156;20.788;2022-08-18T20:13:28;100176.46;;;24.81;76.25
38612;BME280;24368;52.156;20.788;2022-08-18T20:18:34;100184.80;;;24.81;76.13
38612;BME280;24368;52.156;20.788;2022-08-18T20:23:37;100182.79;;;24.76;76.07
38612;BME280;24368;52.156;20.788;2022-08-18T20:28:57;100194.73;;;24.63;76.73
38612;BME280;24368;52.156;20.788;2022-08-18T20:34:10;100188.40;;;24.38;78.78
38612;BME280;24368;52.156;20.788;2022-08-18T20:39:29;100183.15;;;24.20;80.60
38612;BME280;24368;52.156;20.788;2022-08-18T20:49:46;100184.48;;;23.87;82.34
38612;BME280;24368;52.156;20.788;2022-08-18T20:54:55;100174.13;;;23.84;82.79
38612;BME280;24368;52.156;20.788;2022-08-18T21:05:11;100168.38;;;23.92;82.86
38612;BME280;24368;52.156;20.788;2022-08-18T21:10:17;100166.98;;;24.01;81.53
38612;BME280;24368;52.156;20.788;2022-08-18T21:15:21;100160.49;;;24.06;81.23
38612;BME280;24368;52.156;20.788;2022-08-18T21:20:24;100155.27;;;24.08;80.82
38612;BME280;24368;52.156;20.788;2022-08-18T21:25:27;100148.80;;;24.08;80.98
38612;BME280;24368;52.156;20.788;2022-08-18T21:30:29;100133.74;;;24.17;80.37
38612;BME280;24368;52.156;20.788;2022-08-18T21:35:33;100119.91;;;24.20;79.99
38612;BME280;24368;52.156;20.788;2022-08-18T21:40:47;100106.89;;;24.12;80.07
38612;BME280;24368;52.156;20.788;2022-08-18T21:45:49;100108.56;;;24.05;80.14
38612;BME280;24368;52.156;20.788;2022-08-18T21:50:59;100129.05;;;23.97;80.33
38612;BME280;24368;52.156;20.788;2022-08-18T21:56:02;100144.70;;;23.87;80.32
38612;BME280;24368;52.156;20.788;2022-08-18T22:01:11;100142.54;;;23.69;80.79
38612;BME280;24368;52.156;20.788;2022-08-18T22:11:25;100120.14;;;23.64;80.72
38612;BME280;24368;52.156;20.788;2022-08-18T22:16:46;100117.45;;;23.69;81.06
38612;BME280;24368;52.156;20.788;2022-08-18T22:21:54;100112.36;;;23.66;81.44
38612;BME280;24368;52.156;20.788;2022-08-18T22:27:04;100109.01;;;23.56;81.67
38612;BME280;24368;52.156;20.788;2022-08-18T22:32:08;100112.23;;;23.46;82.21
38612;BME280;24368;52.156;20.788;2022-08-18T22:37:15;100118.43;;;23.45;82.23
38612;BME280;24368;52.156;20.788;2022-08-18T22:42:18;100109.33;;;23.56;81.42
38612;BME280;24368;52.156;20.788;2022-08-18T22:47:21;100101.25;;;23.57;81.42
38612;BME280;24368;52.156;20.788;2022-08-18T22:52:26;100106.06;;;23.54;81.65
38612;BME280;24368;52.156;20.788;2022-08-18T22:57:29;100112.52;;;23.43;81.50
38612;BME280;24368;52.156;20.788;2022-08-18T23:02:34;100105.85;;;23.35;81.57
38612;BME280;24368;52.156;20.788;2022-08-18T23:07:36;100116.83;;;23.24;81.80
38612;BME280;24368;52.156;20.788;2022-08-18T23:12:38;100118.77;;;23.24;81.68
38612;BME280;24368;52.156;20.788;2022-08-18T23:17:41;100130.65;;;23.16;81.84
38612;BME280;24368;52.156;20.788;2022-08-18T23:22:44;100138.20;;;23.12;81.86
38612;BME280;24368;52.156;20.788;2022-08-18T23:27:46;100139.31;;;23.11;82.60
38612;BME280;24368;52.156;20.788;2022-08-18T23:32:47;100144.45;;;22.98;83.43
38612;BME280;24368;52.156;20.788;2022-08-18T23:37:49;100140.23;;;22.71;85.65
38612;BME280;24368;52.156;20.788;2022-08-18T23:42:51;100145.40;;;22.53;86.77
38612;BME280;24368;52.156;20.788;2022-08-18T23:47:53;100135.21;;;22.65;86.39
38612;BME280;24368;52.156;20.788;2022-08-18T23:52:56;100125.59;;;22.71;86.14
38612;BME280;24368;52.156;20.788;2022-08-18T23:57:58;100130.29;;;22.84;84.57
